Terminal Aerodrome Forecast
Issued by NWS

Home | Current Version | Previous Version | Graphics & Text | Print | Product List | Glossary On
Versions: 1 2 3 4 5 6 7 8 9 10 11 12 13 14 15 16 17 18 19 20 21 22 23 24
000
FTUS43 KLOT 252200 AAB
TAFDPA
TAF AMD
KDPA 252203Z 2522/2618 19012KT P6SM BKN200
     FM261400 21010G17KT P6SM SCT020 OVC150=

USA.gov is the U.S. government's official web portal to all federal, state and local government web resources and services.